sensor_id;sensor_type;location;lat;lon;timestamp;temperature;humidity
69598;SHT31;70000;51.176;-115.568;2023-10-13T00:00:51;10.96;63.24
69598;SHT31;70000;51.176;-115.568;2023-10-13T00:03:24;10.94;63.35
69598;SHT31;70000;51.176;-115.568;2023-10-13T00:06:00;10.90;63.47
69598;SHT31;70000;51.176;-115.568;2023-10-13T00:08:36;10.85;63.61
69598;SHT31;70000;51.176;-115.568;2023-10-13T00:11:13;10.83;63.75
69598;SHT31;70000;51.176;-115.568;2023-10-13T00:13:42;10.79;63.91
69598;SHT31;70000;51.176;-115.568;2023-10-13T00:16:17;10.73;64.17
69598;SHT31;70000;51.176;-115.568;2023-10-13T00:18:54;10.72;64.30
69598;SHT31;70000;51.176;-115.568;2023-10-13T00:21:24;10.71;64.44
69598;SHT31;70000;51.176;-115.568;2023-10-13T00:24:00;10.68;64.58
69598;SHT31;70000;51.176;-115.568;2023-10-13T00:26:45;10.66;64.63
69598;SHT31;70000;51.176;-115.568;2023-10-13T00:29:17;10.62;64.77
69598;SHT31;70000;51.176;-115.568;2023-10-13T00:31:55;10.58;64.80
69598;SHT31;70000;51.176;-115.568;2023-10-13T00:34:26;10.57;64.87
69598;SHT31;70000;51.176;-115.568;2023-10-13T00:37:07;10.56;65.01
69598;SHT31;70000;51.176;-115.568;2023-10-13T00:39:56;10.53;65.13
69598;SHT31;70000;51.176;-115.568;2023-10-13T00:42:35;10.48;65.29
69598;SHT31;70000;51.176;-115.568;2023-10-13T00:45:29;10.43;65.43
69598;SHT31;70000;51.176;-115.568;2023-10-13T00:48:28;10.41;65.47
69598;SHT31;70000;51.176;-115.568;2023-10-13T00:51:17;10.39;65.50
69598;SHT31;70000;51.176;-115.568;2023-10-13T00:54:01;10.37;65.60
69598;SHT31;70000;51.176;-115.568;2023-10-13T00:56:57;10.32;65.79
69598;SHT31;70000;51.176;-115.568;2023-10-13T00:59:42;10.30;65.85
69598;SHT31;70000;51.176;-115.568;2023-10-13T01:02:19;10.29;65.88
69598;SHT31;70000;51.176;-115.568;2023-10-13T01:05:07;10.27;66.00
69598;SHT31;70000;51.176;-115.568;2023-10-13T01:07:49;10.27;66.11
69598;SHT31;70000;51.176;-115.568;2023-10-13T01:10:24;10.26;66.26
69598;SHT31;70000;51.176;-115.568;2023-10-13T01:13:05;10.24;66.22
69598;SHT31;70000;51.176;-115.568;2023-10-13T01:15:40;10.28;66.06
69598;SHT31;70000;51.176;-115.568;2023-10-13T01:18:15;10.28;66.09
69598;SHT31;70000;51.176;-115.568;2023-10-13T01:21:41;10.28;66.21
69598;SHT31;70000;51.176;-115.568;2023-10-13T01:24:21;10.27;66.35
69598;SHT31;70000;51.176;-115.568;2023-10-13T01:27:04;10.23;66.33
69598;SHT31;70000;51.176;-115.568;2023-10-13T01:29:51;10.22;66.41
69598;SHT31;70000;51.176;-115.568;2023-10-13T01:32:36;10.19;66.50
69598;SHT31;70000;51.176;-115.568;2023-10-13T01:35:24;10.19;66.41
69598;SHT31;70000;51.176;-115.568;2023-10-13T01:38:17;10.20;66.41
69598;SHT31;70000;51.176;-115.568;2023-10-13T01:41:12;10.18;66.39
69598;SHT31;70000;51.176;-115.568;2023-10-13T01:43:49;10.18;66.40
69598;SHT31;70000;51.176;-115.568;2023-10-13T01:46:27;10.17;66.39
69598;SHT31;70000;51.176;-115.568;2023-10-13T01:49:00;10.15;66.43
69598;SHT31;70000;51.176;-115.568;2023-10-13T01:51:40;10.11;66.46
69598;SHT31;70000;51.176;-115.568;2023-10-13T01:54:11;10.10;66.50
69598;SHT31;70000;51.176;-115.568;2023-10-13T01:56:51;10.07;66.59
69598;SHT31;70000;51.176;-115.568;2023-10-13T01:59:21;10.05;66.58
69598;SHT31;70000;51.176;-115.568;2023-10-13T02:01:50;10.03;66.62
69598;SHT31;70000;51.176;-115.568;2023-10-13T02:04:34;10.03;66.64
69598;SHT31;70000;51.176;-115.568;2023-10-13T02:07:16;9.99;66.70
69598;SHT31;70000;51.176;-115.568;2023-10-13T02:10:08;9.98;66.73
69598;SHT31;70000;51.176;-115.568;2023-10-13T02:12:56;9.96;66.78
69598;SHT31;70000;51.176;-115.568;2023-10-13T02:15:32;9.94;66.86
69598;SHT31;70000;51.176;-115.568;2023-10-13T02:18:02;9.93;66.88
69598;SHT31;70000;51.176;-115.568;2023-10-13T02:21:21;9.93;66.80
69598;SHT31;70000;51.176;-115.568;2023-10-13T02:24:02;9.93;66.80
69598;SHT31;70000;51.176;-115.568;2023-10-13T02:29:22;9.87;66.93
69598;SHT31;70000;51.176;-115.568;2023-10-13T02:32:11;9.84;66.91
69598;SHT31;70000;51.176;-115.568;2023-10-13T02:35:08;9.79;67.01
69598;SHT31;70000;51.176;-115.568;2023-10-13T02:38:36;9.76;67.03
69598;SHT31;70000;51.176;-115.568;2023-10-13T02:44:15;9.74;67.10
69598;SHT31;70000;51.176;-115.568;2023-10-13T02:47:03;9.71;67.19
69598;SHT31;70000;51.176;-115.568;2023-10-13T02:49:35;9.67;67.32
69598;SHT31;70000;51.176;-115.568;2023-10-13T02:52:04;9.67;67.38
69598;SHT31;70000;51.176;-115.568;2023-10-13T02:54:55;9.65;67.40
69598;SHT31;70000;51.176;-115.568;2023-10-13T02:57:38;9.63;67.56
69598;SHT31;70000;51.176;-115.568;2023-10-13T03:00:13;9.63;68.02
69598;SHT31;70000;51.176;-115.568;2023-10-13T03:02:50;9.65;67.73
69598;SHT31;70000;51.176;-115.568;2023-10-13T03:05:41;9.63;67.73
69598;SHT31;70000;51.176;-115.568;2023-10-13T03:08:27;9.60;67.70
69598;SHT31;70000;51.176;-115.568;2023-10-13T03:11:01;9.62;67.80
69598;SHT31;70000;51.176;-115.568;2023-10-13T03:13:53;9.63;67.74
69598;SHT31;70000;51.176;-115.568;2023-10-13T03:16:53;9.61;67.73
69598;SHT31;70000;51.176;-115.568;2023-10-13T03:19:45;9.59;67.71
69598;SHT31;70000;51.176;-115.568;2023-10-13T03:22:32;9.55;67.70
69598;SHT31;70000;51.176;-115.568;2023-10-13T03:25:36;9.52;67.73
69598;SHT31;70000;51.176;-115.568;2023-10-13T03:28:38;9.46;67.82
69598;SHT31;70000;51.176;-115.568;2023-10-13T03:32:20;9.43;67.91
69598;SHT31;70000;51.176;-115.568;2023-10-13T03:36:08;9.36;68.10
69598;SHT31;70000;51.176;-115.568;2023-10-13T03:39:50;9.29;68.27
69598;SHT31;70000;51.176;-115.568;2023-10-13T03:43:30;9.24;68.50
69598;SHT31;70000;51.176;-115.568;2023-10-13T03:46:53;9.23;68.57
69598;SHT31;70000;51.176;-115.568;2023-10-13T03:50:07;9.23;68.68
69598;SHT31;70000;51.176;-115.568;2023-10-13T03:56:41;9.22;68.80
69598;SHT31;70000;51.176;-115.568;2023-10-13T04:00:16;9.23;68.87
69598;SHT31;70000;51.176;-115.568;2023-10-13T04:03:05;9.26;68.79
69598;SHT31;70000;51.176;-115.568;2023-10-13T04:05:40;9.30;68.81
69598;SHT31;70000;51.176;-115.568;2023-10-13T04:08:37;9.21;69.09
69598;SHT31;70000;51.176;-115.568;2023-10-13T04:11:56;9.17;69.28
69598;SHT31;70000;51.176;-115.568;2023-10-13T04:15:09;9.18;69.32
69598;SHT31;70000;51.176;-115.568;2023-10-13T04:21:49;9.20;69.30
69598;SHT31;70000;51.176;-115.568;2023-10-13T04:24:50;9.17;69.30
69598;SHT31;70000;51.176;-115.568;2023-10-13T04:28:00;9.18;69.31
69598;SHT31;70000;51.176;-115.568;2023-10-13T04:31:23;9.16;69.29
69598;SHT31;70000;51.176;-115.568;2023-10-13T04:34:42;9.09;69.48
69598;SHT31;70000;51.176;-115.568;2023-10-13T04:38:03;9.03;69.63
69598;SHT31;70000;51.176;-115.568;2023-10-13T04:44:13;8.98;69.69
69598;SHT31;70000;51.176;-115.568;2023-10-13T04:47:13;8.96;69.76
69598;SHT31;70000;51.176;-115.568;2023-10-13T04:49:51;8.91;69.88
69598;SHT31;70000;51.176;-115.568;2023-10-13T04:52:48;8.90;69.93
69598;SHT31;70000;51.176;-115.568;2023-10-13T04:55:33;8.89;69.96
69598;SHT31;70000;51.176;-115.568;2023-10-13T04:58:39;8.85;69.97
69598;SHT31;70000;51.176;-115.568;2023-10-13T05:01:35;8.81;70.00
69598;SHT31;70000;51.176;-115.568;2023-10-13T05:04:47;8.78;70.10
69598;SHT31;70000;51.176;-115.568;2023-10-13T05:14:13;8.63;70.53
69598;SHT31;70000;51.176;-115.568;2023-10-13T05:17:40;8.61;70.77
69598;SHT31;70000;51.176;-115.568;2023-10-13T05:20:39;8.58;70.88
69598;SHT31;70000;51.176;-115.568;2023-10-13T05:23:32;8.55;71.02
69598;SHT31;70000;51.176;-115.568;2023-10-13T05:26:49;8.52;71.19
69598;SHT31;70000;51.176;-115.568;2023-10-13T05:30:07;8.53;71.23
69598;SHT31;70000;51.176;-115.568;2023-10-13T05:40:23;8.49;71.58
69598;SHT31;70000;51.176;-115.568;2023-10-13T05:54:26;8.39;71.93
69598;SHT31;70000;51.176;-115.568;2023-10-13T05:57:42;8.39;72.04
69598;SHT31;70000;51.176;-115.568;2023-10-13T06:04:27;8.43;72.09
69598;SHT31;70000;51.176;-115.568;2023-10-13T06:07:40;8.45;72.15
69598;SHT31;70000;51.176;-115.568;2023-10-13T06:10:30;8.48;72.21
69598;SHT31;70000;51.176;-115.568;2023-10-13T06:14:02;8.44;72.30
69598;SHT31;70000;51.176;-115.568;2023-10-13T06:17:15;8.44;72.30
69598;SHT31;70000;51.176;-115.568;2023-10-13T06:20:57;8.45;72.22
69598;SHT31;70000;51.176;-115.568;2023-10-13T06:24:37;8.45;72.30
69598;SHT31;70000;51.176;-115.568;2023-10-13T06:27:54;8.45;72.38
69598;SHT31;70000;51.176;-115.568;2023-10-13T06:35:29;8.46;72.50
69598;SHT31;70000;51.176;-115.568;2023-10-13T06:45:48;8.50;72.39
69598;SHT31;70000;51.176;-115.568;2023-10-13T06:52:34;8.58;72.27
69598;SHT31;70000;51.176;-115.568;2023-10-13T06:55:26;8.60;72.16
69598;SHT31;70000;51.176;-115.568;2023-10-13T06:59:02;8.59;72.10
69598;SHT31;70000;51.176;-115.568;2023-10-13T07:02:15;8.57;72.15
69598;SHT31;70000;51.176;-115.568;2023-10-13T07:08:49;8.60;72.12
69598;SHT31;70000;51.176;-115.568;2023-10-13T07:12:13;8.58;72.30
69598;SHT31;70000;51.176;-115.568;2023-10-13T07:14:56;8.59;72.30
69598;SHT31;70000;51.176;-115.568;2023-10-13T07:25:11;8.69;72.00
69598;SHT31;70000;51.176;-115.568;2023-10-13T07:28:35;8.70;71.97
69598;SHT31;70000;51.176;-115.568;2023-10-13T07:35:24;8.71;71.78
69598;SHT31;70000;51.176;-115.568;2023-10-13T07:50:18;8.74;71.38
69598;SHT31;70000;51.176;-115.568;2023-10-13T07:54:13;8.75;71.15
69598;SHT31;70000;51.176;-115.568;2023-10-13T07:57:36;8.78;71.01
69598;SHT31;70000;51.176;-115.568;2023-10-13T08:01:10;8.80;70.91
69598;SHT31;70000;51.176;-115.568;2023-10-13T08:04:07;8.81;70.82
69598;SHT31;70000;51.176;-115.568;2023-10-13T08:07:44;8.80;70.73
69598;SHT31;70000;51.176;-115.568;2023-10-13T08:11:23;8.81;70.56
69598;SHT31;70000;51.176;-115.568;2023-10-13T08:14:31;8.80;70.40
69598;SHT31;70000;51.176;-115.568;2023-10-13T08:17:45;8.79;70.44
69598;SHT31;70000;51.176;-115.568;2023-10-13T08:20:39;8.80;70.49
69598;SHT31;70000;51.176;-115.568;2023-10-13T08:23:43;8.80;70.60
69598;SHT31;70000;51.176;-115.568;2023-10-13T08:26:43;8.82;70.60
69598;SHT31;70000;51.176;-115.568;2023-10-13T08:33:19;8.83;70.95
69598;SHT31;70000;51.176;-115.568;2023-10-13T08:36:34;8.81;71.04
69598;SHT31;70000;51.176;-115.568;2023-10-13T08:39:41;8.79;71.10
69598;SHT31;70000;51.176;-115.568;2023-10-13T08:43:18;8.78;70.88
69598;SHT31;70000;51.176;-115.568;2023-10-13T08:49:46;8.78;70.98
69598;SHT31;70000;51.176;-115.568;2023-10-13T08:56:23;8.74;71.42
69598;SHT31;70000;51.176;-115.568;2023-10-13T08:59:28;8.73;71.50
69598;SHT31;70000;51.176;-115.568;2023-10-13T09:02:31;8.76;71.56
69598;SHT31;70000;51.176;-115.568;2023-10-13T09:05:54;8.74;71.70
69598;SHT31;70000;51.176;-115.568;2023-10-13T09:09:21;8.75;71.65
69598;SHT31;70000;51.176;-115.568;2023-10-13T09:13:06;8.75;71.74
69598;SHT31;70000;51.176;-115.568;2023-10-13T09:15:57;8.76;71.70
69598;SHT31;70000;51.176;-115.568;2023-10-13T09:30:49;8.75;71.20
69598;SHT31;70000;51.176;-115.568;2023-10-13T09:40:04;8.74;71.42
69598;SHT31;70000;51.176;-115.568;2023-10-13T09:43:17;8.74;71.54
69598;SHT31;70000;51.176;-115.568;2023-10-13T09:46:08;8.73;71.82
69598;SHT31;70000;51.176;-115.568;2023-10-13T09:49:49;8.69;72.00
69598;SHT31;70000;51.176;-115.568;2023-10-13T09:57:41;8.73;72.28
69598;SHT31;70000;51.176;-115.568;2023-10-13T10:01:07;8.70;72.31
69598;SHT31;70000;51.176;-115.568;2023-10-13T10:04:23;8.71;72.33
69598;SHT31;70000;51.176;-115.568;2023-10-13T10:18:39;8.73;72.50
69598;SHT31;70000;51.176;-115.568;2023-10-13T10:25:33;8.73;72.50
69598;SHT31;70000;51.176;-115.568;2023-10-13T10:32:46;8.70;72.57
69598;SHT31;70000;51.176;-115.568;2023-10-13T10:36:11;8.69;72.60
69598;SHT31;70000;51.176;-115.568;2023-10-13T11:05:24;8.58;71.88
69598;SHT31;70000;51.176;-115.568;2023-10-13T11:26:32;8.50;71.68
69598;SHT31;70000;51.176;-115.568;2023-10-13T11:33:43;8.49;71.64
69598;SHT31;70000;51.176;-115.568;2023-10-13T11:36:43;8.45;71.63
69598;SHT31;70000;51.176;-115.568;2023-10-13T11:39:35;8.43;71.61
69598;SHT31;70000;51.176;-115.568;2023-10-13T11:42:36;8.43;71.70
69598;SHT31;70000;51.176;-115.568;2023-10-13T11:45:37;8.42;71.72
69598;SHT31;70000;51.176;-115.568;2023-10-13T11:49:08;8.41;71.80
69598;SHT31;70000;51.176;-115.568;2023-10-13T11:52:20;8.44;71.80
69598;SHT31;70000;51.176;-115.568;2023-10-13T11:55:42;8.47;71.70
69598;SHT31;70000;51.176;-115.568;2023-10-13T11:58:32;8.46;71.70
69598;SHT31;70000;51.176;-115.568;2023-10-13T12:01:14;8.45;71.70
69598;SHT31;70000;51.176;-115.568;2023-10-13T12:03:49;8.43;71.70
69598;SHT31;70000;51.176;-115.568;2023-10-13T12:06:51;8.43;71.70
69598;SHT31;70000;51.176;-115.568;2023-10-13T12:10:14;8.42;71.63
69598;SHT31;70000;51.176;-115.568;2023-10-13T12:13:24;8.41;71.61
69598;SHT31;70000;51.176;-115.568;2023-10-13T12:16:33;8.40;71.52
69598;SHT31;70000;51.176;-115.568;2023-10-13T12:26:19;8.37;71.33
69598;SHT31;70000;51.176;-115.568;2023-10-13T12:29:36;8.35;71.40
69598;SHT31;70000;51.176;-115.568;2023-10-13T12:32:37;8.35;71.44
69598;SHT31;70000;51.176;-115.568;2023-10-13T12:38:41;8.36;71.30
69598;SHT31;70000;51.176;-115.568;2023-10-13T12:41:28;8.35;71.40
69598;SHT31;70000;51.176;-115.568;2023-10-13T12:44:34;8.35;71.32
69598;SHT31;70000;51.176;-115.568;2023-10-13T12:47:28;8.35;71.30
69598;SHT31;70000;51.176;-115.568;2023-10-13T12:50:32;8.36;71.24
69598;SHT31;70000;51.176;-115.568;2023-10-13T12:53:56;8.36;71.20
69598;SHT31;70000;51.176;-115.568;2023-10-13T12:57:29;8.36;71.20
69598;SHT31;70000;51.176;-115.568;2023-10-13T13:00:16;8.34;71.20
69598;SHT31;70000;51.176;-115.568;2023-10-13T13:03:25;8.35;71.21
69598;SHT31;70000;51.176;-115.568;2023-10-13T13:06:02;8.35;71.19
69598;SHT31;70000;51.176;-115.568;2023-10-13T13:09:05;8.34;71.19
69598;SHT31;70000;51.176;-115.568;2023-10-13T13:12:08;8.33;71.12
69598;SHT31;70000;51.176;-115.568;2023-10-13T13:15:27;8.29;71.19
69598;SHT31;70000;51.176;-115.568;2023-10-13T13:18:10;8.28;71.20
69598;SHT31;70000;51.176;-115.568;2023-10-13T13:21:25;8.25;71.23
69598;SHT31;70000;51.176;-115.568;2023-10-13T13:24:00;8.24;71.21
69598;SHT31;70000;51.176;-115.568;2023-10-13T13:26:50;8.20;71.20
69598;SHT31;70000;51.176;-115.568;2023-10-13T13:29:55;8.19;71.14
69598;SHT31;70000;51.176;-115.568;2023-10-13T13:32:39;8.17;71.12
69598;SHT31;70000;51.176;-115.568;2023-10-13T13:35:33;8.16;71.14
69598;SHT31;70000;51.176;-115.568;2023-10-13T13:42:11;8.12;71.18
69598;SHT31;70000;51.176;-115.568;2023-10-13T13:45:26;8.10;71.19
69598;SHT31;70000;51.176;-115.568;2023-10-13T13:48:40;8.10;71.19
69598;SHT31;70000;51.176;-115.568;2023-10-13T13:55:27;8.10;71.13
69598;SHT31;70000;51.176;-115.568;2023-10-13T13:59:00;8.09;71.10
69598;SHT31;70000;51.176;-115.568;2023-10-13T14:02:44;8.07;71.19
69598;SHT31;70000;51.176;-115.568;2023-10-13T14:10:15;8.06;71.30
69598;SHT31;70000;51.176;-115.568;2023-10-13T14:13:38;8.05;71.30
69598;SHT31;70000;51.176;-115.568;2023-10-13T14:17:21;8.04;71.30
69598;SHT31;70000;51.176;-115.568;2023-10-13T14:20:15;8.03;71.30
69598;SHT31;70000;51.176;-115.568;2023-10-13T14:27:04;8.01;71.40
69598;SHT31;70000;51.176;-115.568;2023-10-13T14:33:55;8.01;71.32
69598;SHT31;70000;51.176;-115.568;2023-10-13T14:37:48;7.98;71.30
69598;SHT31;70000;51.176;-115.568;2023-10-13T14:41:03;7.96;71.40
69598;SHT31;70000;51.176;-115.568;2023-10-13T14:49:19;7.98;71.40
69598;SHT31;70000;51.176;-115.568;2023-10-13T14:56:31;8.02;71.32
69598;SHT31;70000;51.176;-115.568;2023-10-13T14:59:19;8.04;71.32
69598;SHT31;70000;51.176;-115.568;2023-10-13T15:02:45;8.06;71.30
69598;SHT31;70000;51.176;-115.568;2023-10-13T15:05:59;8.09;71.30
69598;SHT31;70000;51.176;-115.568;2023-10-13T15:08:41;8.14;71.23
69598;SHT31;70000;51.176;-115.568;2023-10-13T15:11:59;8.16;71.21
69598;SHT31;70000;51.176;-115.568;2023-10-13T15:15:16;8.21;71.20
69598;SHT31;70000;51.176;-115.568;2023-10-13T15:18:33;8.25;71.17
69598;SHT31;70000;51.176;-115.568;2023-10-13T15:21:11;8.28;71.05
69598;SHT31;70000;51.176;-115.568;2023-10-13T15:31:42;8.35;70.78
69598;SHT31;70000;51.176;-115.568;2023-10-13T15:34:59;8.35;70.66
69598;SHT31;70000;51.176;-115.568;2023-10-13T15:49:37;8.43;70.29
69598;SHT31;70000;51.176;-115.568;2023-10-13T15:53:08;8.45;70.15
69598;SHT31;70000;51.176;-115.568;2023-10-13T15:59:58;8.48;69.98
69598;SHT31;70000;51.176;-115.568;2023-10-13T16:14:47;8.59;69.62
69598;SHT31;70000;51.176;-115.568;2023-10-13T16:21:31;8.69;69.43
69598;SHT31;70000;51.176;-115.568;2023-10-13T16:24:54;8.72;69.50
69598;SHT31;70000;51.176;-115.568;2023-10-13T16:28:30;8.79;69.52
69598;SHT31;70000;51.176;-115.568;2023-10-13T16:31:53;8.85;69.33
69598;SHT31;70000;51.176;-115.568;2023-10-13T16:35:10;8.84;69.30
69598;SHT31;70000;51.176;-115.568;2023-10-13T16:38:02;8.87;69.31
69598;SHT31;70000;51.176;-115.568;2023-10-13T16:41:13;8.96;69.30
69598;SHT31;70000;51.176;-115.568;2023-10-13T16:48:19;9.12;68.89
69598;SHT31;70000;51.176;-115.568;2023-10-13T16:51:07;9.17;68.80
69598;SHT31;70000;51.176;-115.568;2023-10-13T16:54:35;9.21;68.70
69598;SHT31;70000;51.176;-115.568;2023-10-13T17:01:24;9.28;68.70
69598;SHT31;70000;51.176;-115.568;2023-10-13T17:04:13;9.29;68.80
69598;SHT31;70000;51.176;-115.568;2023-10-13T17:07:23;9.31;68.81
69598;SHT31;70000;51.176;-115.568;2023-10-13T17:13:25;9.39;68.91
69598;SHT31;70000;51.176;-115.568;2023-10-13T17:16:36;9.41;68.90
69598;SHT31;70000;51.176;-115.568;2023-10-13T17:19:44;9.46;68.71
69598;SHT31;70000;51.176;-115.568;2023-10-13T17:22:45;9.50;68.59
69598;SHT31;70000;51.176;-115.568;2023-10-13T17:25:20;9.52;68.50
69598;SHT31;70000;51.176;-115.568;2023-10-13T17:28:03;9.56;68.50
69598;SHT31;70000;51.176;-115.568;2023-10-13T17:30:49;9.59;68.50
69598;SHT31;70000;51.176;-115.568;2023-10-13T17:33:27;9.62;68.42
69598;SHT31;70000;51.176;-115.568;2023-10-13T17:36:23;9.65;68.40
69598;SHT31;70000;51.176;-115.568;2023-10-13T17:39:04;9.70;68.32
69598;SHT31;70000;51.176;-115.568;2023-10-13T17:41:36;9.75;68.22
69598;SHT31;70000;51.176;-115.568;2023-10-13T17:44:17;9.78;68.03
69598;SHT31;70000;51.176;-115.568;2023-10-13T17:47:05;9.84;67.52
69598;SHT31;70000;51.176;-115.568;2023-10-13T17:49:50;9.93;67.50
69598;SHT31;70000;51.176;-115.568;2023-10-13T17:52:55;10.01;67.43
69598;SHT31;70000;51.176;-115.568;2023-10-13T17:55:41;10.10;67.29
69598;SHT31;70000;51.176;-115.568;2023-10-13T17:58:22;10.16;67.02
69598;SHT31;70000;51.176;-115.568;2023-10-13T18:01:08;10.18;66.97
69598;SHT31;70000;51.176;-115.568;2023-10-13T18:04:12;10.25;66.77
69598;SHT31;70000;51.176;-115.568;2023-10-13T18:07:37;10.35;66.68
69598;SHT31;70000;51.176;-115.568;2023-10-13T18:10:36;10.42;66.29
69598;SHT31;70000;51.176;-115.568;2023-10-13T18:13:37;10.53;66.06
69598;SHT31;70000;51.176;-115.568;2023-10-13T18:16:57;10.59;65.85
69598;SHT31;70000;51.176;-115.568;2023-10-13T18:19:32;10.64;65.69
69598;SHT31;70000;51.176;-115.568;2023-10-13T18:22:13;10.68;65.60
69598;SHT31;70000;51.176;-115.568;2023-10-13T18:24:52;10.75;65.52
69598;SHT31;70000;51.176;-115.568;2023-10-13T18:27:30;10.82;65.31
69598;SHT31;70000;51.176;-115.568;2023-10-13T18:30:28;10.89;65.28
69598;SHT31;70000;51.176;-115.568;2023-10-13T18:33:16;10.98;65.20
69598;SHT31;70000;51.176;-115.568;2023-10-13T18:36:20;11.08;64.80
69598;SHT31;70000;51.176;-115.568;2023-10-13T18:39:07;11.15;64.59
69598;SHT31;70000;51.176;-115.568;2023-10-13T18:42:16;11.22;64.28
69598;SHT31;70000;51.176;-115.568;2023-10-13T18:45:25;11.30;64.18
69598;SHT31;70000;51.176;-115.568;2023-10-13T18:48:01;11.37;63.89
69598;SHT31;70000;51.176;-115.568;2023-10-13T18:50:44;11.41;63.68
69598;SHT31;70000;51.176;-115.568;2023-10-13T18:53:33;11.44;63.43
69598;SHT31;70000;51.176;-115.568;2023-10-13T18:56:38;11.50;63.31
69598;SHT31;70000;51.176;-115.568;2023-10-13T18:59:22;11.54;63.19
69598;SHT31;70000;51.176;-115.568;2023-10-13T19:04:54;11.65;63.02
69598;SHT31;70000;51.176;-115.568;2023-10-13T19:07:42;11.70;62.86
69598;SHT31;70000;51.176;-115.568;2023-10-13T19:10:35;11.71;62.78
69598;SHT31;70000;51.176;-115.568;2023-10-13T19:13:18;11.75;62.59
69598;SHT31;70000;51.176;-115.568;2023-10-13T19:19:11;11.68;62.08
69598;SHT31;70000;51.176;-115.568;2023-10-13T19:22:18;11.64;62.34
69598;SHT31;70000;51.176;-115.568;2023-10-13T19:25:55;11.69;62.40
69598;SHT31;70000;51.176;-115.568;2023-10-13T19:28:40;11.71;62.40
69598;SHT31;70000;51.176;-115.568;2023-10-13T19:31:17;11.75;62.42
69598;SHT31;70000;51.176;-115.568;2023-10-13T19:33:57;11.77;62.32
69598;SHT31;70000;51.176;-115.568;2023-10-13T19:36:42;11.79;62.30
69598;SHT31;70000;51.176;-115.568;2023-10-13T19:39:32;11.81;62.20
69598;SHT31;70000;51.176;-115.568;2023-10-13T19:42:11;11.80;62.10
69598;SHT31;70000;51.176;-115.568;2023-10-13T19:45:02;11.79;62.10
69598;SHT31;70000;51.176;-115.568;2023-10-13T19:47:53;11.76;62.05
69598;SHT31;70000;51.176;-115.568;2023-10-13T19:50:29;11.76;62.06
69598;SHT31;70000;51.176;-115.568;2023-10-13T19:53:08;11.71;61.96
69598;SHT31;70000;51.176;-115.568;2023-10-13T19:55:40;11.70;62.14
69598;SHT31;70000;51.176;-115.568;2023-10-13T19:58:19;11.69;62.09
69598;SHT31;70000;51.176;-115.568;2023-10-13T20:00:47;11.69;62.06
69598;SHT31;70000;51.176;-115.568;2023-10-13T20:03:23;11.68;62.00
69598;SHT31;70000;51.176;-115.568;2023-10-13T20:05:55;11.65;61.94
69598;SHT31;70000;51.176;-115.568;2023-10-13T20:08:38;11.64;62.02
69598;SHT31;70000;51.176;-115.568;2023-10-13T20:11:21;11.65;62.07
69598;SHT31;70000;51.176;-115.568;2023-10-13T20:16:52;11.65;61.95
69598;SHT31;70000;51.176;-115.568;2023-10-13T20:19:31;11.67;61.94
69598;SHT31;70000;51.176;-115.568;2023-10-13T20:22:03;11.66;61.85
69598;SHT31;70000;51.176;-115.568;2023-10-13T20:24:40;11.63;61.89
69598;SHT31;70000;51.176;-115.568;2023-10-13T20:27:15;11.61;61.95
69598;SHT31;70000;51.176;-115.568;2023-10-13T20:32:53;11.52;62.16
69598;SHT31;70000;51.176;-115.568;2023-10-13T20:35:43;11.51;62.20
69598;SHT31;70000;51.176;-115.568;2023-10-13T20:38:21;11.52;62.22
69598;SHT31;70000;51.176;-115.568;2023-10-13T20:40:59;11.52;62.29
69598;SHT31;70000;51.176;-115.568;2023-10-13T20:43:35;11.52;62.26
69598;SHT31;70000;51.176;-115.568;2023-10-13T20:46:24;11.50;62.24
69598;SHT31;70000;51.176;-115.568;2023-10-13T20:49:10;11.48;62.30
69598;SHT31;70000;51.176;-115.568;2023-10-13T20:52:23;11.49;62.32
69598;SHT31;70000;51.176;-115.568;2023-10-13T20:55:34;11.50;62.29
69598;SHT31;70000;51.176;-115.568;2023-10-13T20:58:28;11.52;62.22
69598;SHT31;70000;51.176;-115.568;2023-10-13T21:02:07;11.51;62.18
69598;SHT31;70000;51.176;-115.568;2023-10-13T21:05:06;11.48;62.23
69598;SHT31;70000;51.176;-115.568;2023-10-13T21:08:10;11.49;62.36
69598;SHT31;70000;51.176;-115.568;2023-10-13T21:10:46;11.51;62.29
69598;SHT31;70000;51.176;-115.568;2023-10-13T21:13:16;11.52;62.35
69598;SHT31;70000;51.176;-115.568;2023-10-13T21:15:54;11.55;62.27
69598;SHT31;70000;51.176;-115.568;2023-10-13T21:18:29;11.56;62.13
69598;SHT31;70000;51.176;-115.568;2023-10-13T21:21:16;11.56;62.12
69598;SHT31;70000;51.176;-115.568;2023-10-13T21:24:24;11.55;62.16
69598;SHT31;70000;51.176;-115.568;2023-10-13T21:27:12;11.54;62.12
69598;SHT31;70000;51.176;-115.568;2023-10-13T21:29:46;11.54;62.06
69598;SHT31;70000;51.176;-115.568;2023-10-13T21:32:36;11.57;61.90
69598;SHT31;70000;51.176;-115.568;2023-10-13T21:35:23;11.59;61.81
69598;SHT31;70000;51.176;-115.568;2023-10-13T21:38:48;11.55;61.72
69598;SHT31;70000;51.176;-115.568;2023-10-13T21:42:16;11.53;61.70
69598;SHT31;70000;51.176;-115.568;2023-10-13T21:44:47;11.49;61.71
69598;SHT31;70000;51.176;-115.568;2023-10-13T21:50:26;11.39;61.77
69598;SHT31;70000;51.176;-115.568;2023-10-13T21:52:59;11.37;61.84
69598;SHT31;70000;51.176;-115.568;2023-10-13T21:55:52;11.33;61.99
69598;SHT31;70000;51.176;-115.568;2023-10-13T21:58:48;11.31;62.04
69598;SHT31;70000;51.176;-115.568;2023-10-13T22:01:28;11.30;62.09
69598;SHT31;70000;51.176;-115.568;2023-10-13T22:04:27;11.28;62.21
69598;SHT31;70000;51.176;-115.568;2023-10-13T22:07:17;11.26;62.24
69598;SHT31;70000;51.176;-115.568;2023-10-13T22:10:04;11.26;62.28
69598;SHT31;70000;51.176;-115.568;2023-10-13T22:12:45;11.24;62.31
69598;SHT31;70000;51.176;-115.568;2023-10-13T22:15:19;11.22;62.39
69598;SHT31;70000;51.176;-115.568;2023-10-13T22:17:57;11.20;62.51
69598;SHT31;70000;51.176;-115.568;2023-10-13T22:20:53;11.19;62.57
69598;SHT31;70000;51.176;-115.568;2023-10-13T22:23:40;11.16;62.69
69598;SHT31;70000;51.176;-115.568;2023-10-13T22:26:21;11.15;62.74
69598;SHT31;70000;51.176;-115.568;2023-10-13T22:29:21;11.12;62.80
69598;SHT31;70000;51.176;-115.568;2023-10-13T22:32:09;11.13;62.85
69598;SHT31;70000;51.176;-115.568;2023-10-13T22:34:59;11.14;62.82
69598;SHT31;70000;51.176;-115.568;2023-10-13T22:37:47;11.15;62.75
69598;SHT31;70000;51.176;-115.568;2023-10-13T22:40:24;11.15;62.73
69598;SHT31;70000;51.176;-115.568;2023-10-13T22:43:01;11.12;62.75
69598;SHT31;70000;51.176;-115.568;2023-10-13T22:45:34;11.10;62.82
69598;SHT31;70000;51.176;-115.568;2023-10-13T22:48:06;11.05;62.96